WS23 weather

R & S Landing Strip
Merrill, Wisconsin, United States

Public forecast

Using degrees Fahrenheit for public forecast. Weather courtesy of forecast.io.

METAR (pilot weather report)

Closest report is Merrill Municipal Airport, 1.8 nm (3.3 km) SE. Retrieved 2019/08/21 04:35 UTC (0 seconds ago):

KRRL 210435Z AUTO 00000KT 10SM SCT035 BKN041 OVC080 16/16 A2999 RMK AO2 T01630163 TSNO

TAF (pilot weather forecast)

Forecast is more than 12 hours old.

Closest forecast is Wausau Downtown Airport, 18.1 nm (33.6 km) SSE. Retrieved 2019/08/20 00:33 UTC (1 day ago):

TAF KAUW 202329Z 2100/2124 28005KT P6SM SCT035 TEMPO 2102/2105 BKN035 FM210500 34005KT P6SM BKN030 FM211000 33006KT P6SM SCT030 FM211500 32008G15KT P6SM SCT035